createdAt,value
2023-01-23T00:01:07.606Z,5.10
2023-01-23T00:03:34.566Z,5.30
2023-01-23T00:06:06.616Z,5.50
2023-01-23T00:08:34.808Z,5.13
2023-01-23T00:11:06.020Z,5.95
2023-01-23T00:13:33.378Z,5.40
2023-01-23T00:16:04.970Z,6.05
2023-01-23T00:18:31.917Z,4.90
2023-01-23T00:20:58.918Z,5.15
2023-01-23T00:23:25.745Z,5.05
2023-01-23T00:25:52.513Z,5.30
2023-01-23T00:28:19.344Z,5.28
2023-01-23T00:30:46.270Z,5.97
2023-01-23T00:33:13.121Z,5.25
2023-01-23T00:35:40.122Z,5.03
2023-01-23T00:38:06.990Z,5.43
2023-01-23T00:40:34.321Z,4.95
2023-01-23T00:43:01.275Z,5.47
2023-01-23T00:45:28.058Z,5.10
2023-01-23T00:47:54.925Z,5.65
2023-01-23T00:50:21.954Z,5.35
2023-01-23T00:52:48.781Z,5.40
2023-01-23T00:55:15.629Z,5.03
2023-01-23T00:57:42.427Z,5.05
2023-01-23T01:00:10.075Z,4.90
2023-01-23T01:02:37.015Z,5.38
2023-01-23T01:05:04.001Z,5.18
2023-01-23T01:07:30.842Z,5.47
2023-01-23T01:09:57.614Z,5.18
2023-01-23T01:12:24.584Z,5.65
2023-01-23T01:14:51.442Z,5.25
2023-01-23T01:17:18.297Z,5.55
2023-01-23T01:19:45.269Z,5.32
2023-01-23T01:22:12.118Z,5.25
2023-01-23T01:24:41.779Z,5.35
2023-01-23T01:27:08.733Z,4.20
2023-01-23T01:29:35.528Z,5.63
2023-01-23T01:32:02.416Z,5.18
2023-01-23T01:34:29.265Z,6.20
2023-01-23T01:36:56.226Z,5.38
2023-01-23T01:39:23.420Z,5.68
2023-01-23T01:41:50.278Z,5.18
2023-01-23T01:44:19.957Z,5.65
2023-01-23T01:46:48.949Z,4.50
2023-01-23T01:49:36.185Z,5.22
2023-01-23T01:52:10.645Z,5.03
2023-01-23T01:54:53.157Z,6.18
2023-01-23T01:57:34.661Z,4.57
2023-01-23T02:00:12.318Z,5.60
2023-01-23T02:02:58.895Z,5.07
2023-01-23T02:05:34.868Z,4.55
2023-01-23T02:08:11.034Z,5.15
2023-01-23T02:10:38.468Z,4.97
2023-01-23T02:13:22.717Z,6.70
2023-01-23T02:15:52.086Z,5.10
2023-01-23T02:18:20.395Z,5.28
2023-01-23T02:20:47.717Z,5.68
2023-01-23T02:23:49.611Z,5.82
2023-01-23T02:26:29.501Z,4.57
2023-01-23T02:28:57.350Z,6.10
2023-01-23T02:31:28.126Z,4.75
2023-01-23T02:33:57.794Z,5.60
2023-01-23T02:36:28.546Z,5.65
2023-01-23T02:39:03.167Z,5.47
2023-01-23T02:41:51.849Z,5.60
2023-01-23T02:44:27.720Z,5.50
2023-01-23T02:47:08.040Z,5.30
2023-01-23T02:49:35.065Z,5.90
2023-01-23T02:52:05.881Z,5.70
2023-01-23T02:54:34.444Z,5.53
2023-01-23T02:57:01.626Z,5.30
2023-01-23T02:59:48.604Z,5.70
2023-01-23T03:02:15.783Z,4.78
2023-01-23T03:04:42.626Z,5.00
2023-01-23T03:07:09.471Z,5.63
2023-01-23T03:09:37.449Z,6.00
2023-01-23T03:12:04.387Z,5.25
2023-01-23T03:14:32.402Z,6.43
2023-01-23T03:16:59.689Z,5.95
2023-01-23T03:19:31.307Z,5.57
2023-01-23T03:21:59.062Z,5.45
2023-01-23T03:24:25.889Z,5.85
2023-01-23T03:26:52.727Z,5.75
2023-01-23T03:29:44.232Z,5.45
2023-01-23T03:32:15.121Z,5.32
2023-01-23T03:34:43.170Z,6.32
2023-01-23T03:37:12.401Z,5.57
2023-01-23T03:39:58.781Z,6.32
2023-01-23T03:42:26.323Z,5.32
2023-01-23T03:44:55.786Z,6.03
2023-01-23T03:47:26.511Z,5.53
2023-01-23T03:49:55.147Z,5.07
2023-01-23T03:52:22.377Z,5.47
2023-01-23T03:54:49.473Z,5.22
2023-01-23T03:57:16.456Z,5.32
2023-01-23T04:00:01.894Z,5.40
2023-01-23T04:02:41.334Z,5.25
2023-01-23T04:05:10.611Z,5.28
2023-01-23T04:07:38.445Z,5.25
2023-01-23T04:10:05.570Z,5.10
2023-01-23T04:12:32.491Z,5.22
2023-01-23T04:15:00.095Z,5.20
2023-01-23T04:17:27.963Z,5.45
2023-01-23T04:19:54.822Z,4.60
2023-01-23T04:22:21.747Z,5.25
2023-01-23T04:24:50.499Z,4.97
2023-01-23T04:27:17.337Z,4.60
2023-01-23T04:29:44.664Z,4.95
2023-01-23T04:32:11.788Z,4.47
2023-01-23T04:34:44.308Z,4.60
2023-01-23T04:37:11.165Z,4.18
2023-01-23T04:39:39.105Z,5.20
2023-01-23T04:42:06.125Z,4.28
2023-01-23T04:44:55.484Z,4.82
2023-01-23T04:47:41.344Z,4.60
2023-01-23T04:50:11.265Z,4.00
2023-01-23T04:52:39.063Z,4.07
2023-01-23T04:55:06.381Z,3.60
2023-01-23T04:57:33.311Z,4.18
2023-01-23T05:00:35.737Z,4.10
2023-01-23T05:03:03.450Z,3.55
2023-01-23T05:05:31.985Z,4.32
2023-01-23T05:08:00.851Z,3.45
2023-01-23T05:10:28.933Z,3.30
2023-01-23T05:12:57.557Z,3.60
2023-01-23T05:15:25.620Z,3.63
2023-01-23T05:17:52.400Z,3.85
2023-01-23T05:20:20.606Z,3.80
2023-01-23T05:22:53.441Z,3.95
2023-01-23T05:25:28.451Z,3.95
2023-01-23T05:27:56.867Z,4.30
2023-01-23T05:30:24.541Z,3.80
2023-01-23T05:32:57.604Z,4.10
2023-01-23T05:35:24.408Z,4.57
2023-01-23T05:37:52.778Z,4.20
2023-01-23T05:40:23.507Z,4.10
2023-01-23T05:43:16.706Z,3.92
2023-01-23T05:45:44.500Z,3.72
2023-01-23T05:48:21.790Z,3.55
2023-01-23T05:50:48.671Z,4.07
2023-01-23T05:53:15.676Z,3.33
2023-01-23T05:55:42.774Z,3.70
2023-01-23T05:58:13.412Z,4.25
2023-01-23T06:01:05.428Z,4.00
2023-01-23T06:03:58.283Z,3.80
2023-01-23T06:06:39.202Z,3.55
2023-01-23T06:09:06.021Z,3.58
2023-01-23T06:11:32.869Z,4.07
2023-01-23T06:13:59.696Z,3.70
2023-01-23T06:16:26.574Z,3.90
2023-01-23T06:18:53.403Z,3.90
2023-01-23T06:21:20.349Z,3.40
2023-01-23T06:23:47.832Z,3.38
2023-01-23T06:26:15.835Z,3.58
2023-01-23T06:28:43.985Z,3.47
2023-01-23T06:31:11.582Z,4.05
2023-01-23T06:33:52.487Z,3.63
2023-01-23T06:36:22.836Z,3.58
2023-01-23T06:38:50.206Z,3.35
2023-01-23T06:41:22.450Z,3.40
2023-01-23T06:43:52.090Z,3.50
2023-01-23T06:46:22.629Z,3.22
2023-01-23T06:48:49.458Z,3.78
2023-01-23T06:51:16.493Z,4.20
2023-01-23T06:53:44.881Z,3.30
2023-01-23T06:56:12.863Z,3.55
2023-01-23T06:58:39.862Z,3.08
2023-01-23T07:01:18.457Z,3.78
2023-01-23T07:04:04.392Z,3.75
2023-01-23T07:06:31.880Z,3.58
2023-01-23T07:08:59.395Z,3.05
2023-01-23T07:11:26.812Z,3.03
2023-01-23T07:13:56.545Z,3.42
2023-01-23T07:16:25.459Z,3.38
2023-01-23T07:18:54.825Z,2.95
2023-01-23T07:21:21.701Z,3.08
2023-01-23T07:23:48.498Z,3.35
2023-01-23T07:26:15.263Z,3.05
2023-01-23T07:28:42.037Z,3.80
2023-01-23T07:31:08.929Z,3.58
2023-01-23T07:33:35.800Z,3.78
2023-01-23T07:36:06.642Z,3.60
2023-01-23T07:38:34.057Z,3.53
2023-01-23T07:41:01.623Z,3.75
2023-01-23T07:43:28.482Z,3.30
2023-01-23T07:45:58.034Z,3.42
2023-01-23T07:48:24.903Z,3.22
2023-01-23T07:50:51.803Z,3.40
2023-01-23T07:53:18.666Z,3.60
2023-01-23T07:55:45.508Z,3.63
2023-01-23T07:58:12.392Z,3.78
2023-01-23T08:00:41.801Z,3.17
2023-01-23T08:03:08.607Z,3.22
2023-01-23T08:05:35.408Z,3.10
2023-01-23T08:08:13.141Z,3.72
2023-01-23T08:10:41.437Z,3.53
2023-01-23T08:13:08.343Z,4.25
2023-01-23T08:15:36.631Z,3.33
2023-01-23T08:18:03.539Z,3.95
2023-01-23T08:20:30.363Z,3.47
2023-01-23T08:22:59.039Z,3.67
2023-01-23T08:25:25.955Z,3.47
2023-01-23T08:27:52.762Z,3.42
2023-01-23T08:30:19.978Z,3.80
2023-01-23T08:32:47.237Z,3.55
2023-01-23T08:35:14.189Z,3.90
2023-01-23T08:37:42.313Z,3.58
2023-01-23T08:40:10.046Z,3.92
2023-01-23T08:42:36.885Z,3.90
2023-01-23T08:45:04.656Z,3.75
2023-01-23T08:47:36.507Z,3.38
2023-01-23T08:50:04.919Z,4.38
2023-01-23T08:52:31.940Z,3.80
2023-01-23T08:54:58.827Z,3.72
2023-01-23T08:57:25.639Z,3.80
2023-01-23T08:59:52.564Z,3.53
2023-01-23T09:02:19.451Z,3.78
2023-01-23T09:04:46.730Z,3.85
2023-01-23T09:07:13.948Z,3.78
2023-01-23T09:09:40.708Z,3.58
2023-01-23T09:12:08.340Z,3.97
2023-01-23T09:14:35.191Z,3.47
2023-01-23T09:17:02.050Z,3.70
2023-01-23T09:19:33.309Z,3.42
2023-01-23T09:22:00.140Z,3.53
2023-01-23T09:24:27.000Z,3.75
2023-01-23T09:26:53.980Z,4.57
2023-01-23T09:29:20.765Z,4.20
2023-01-23T09:31:47.608Z,4.40
2023-01-23T09:34:16.974Z,3.65
2023-01-23T09:36:44.168Z,4.07
2023-01-23T09:39:11.749Z,4.25
2023-01-23T09:41:40.186Z,4.28
2023-01-23T09:44:18.331Z,4.53
2023-01-23T09:46:55.938Z,4.45
2023-01-23T09:49:34.081Z,3.75
2023-01-23T09:52:03.993Z,4.25
2023-01-23T09:54:46.993Z,4.65
2023-01-23T09:57:13.751Z,4.68
2023-01-23T09:59:58.351Z,4.32
2023-01-23T10:02:27.203Z,4.30
2023-01-23T10:04:56.221Z,4.45
2023-01-23T10:08:10.325Z,3.50
2023-01-23T10:10:54.007Z,4.25
2023-01-23T10:13:48.971Z,3.90
2023-01-23T10:16:48.719Z,4.28
2023-01-23T10:19:54.028Z,3.85
2023-01-23T10:22:27.005Z,4.78
2023-01-23T10:24:58.257Z,4.50
2023-01-23T10:27:33.834Z,4.80
2023-01-23T10:30:05.670Z,4.20
2023-01-23T10:32:46.042Z,3.78
2023-01-23T10:35:40.652Z,4.43
2023-01-23T10:38:27.887Z,3.88
2023-01-23T10:41:13.515Z,4.00
2023-01-23T10:43:46.128Z,4.68
2023-01-23T10:46:14.661Z,4.78
2023-01-23T10:48:43.317Z,4.22
2023-01-23T10:51:38.185Z,4.55
2023-01-23T10:54:36.837Z,4.18
2023-01-23T10:57:18.642Z,4.40
2023-01-23T11:00:00.426Z,4.40
2023-01-23T11:02:33.169Z,4.10
2023-01-23T11:05:00.979Z,4.22
2023-01-23T11:07:30.827Z,4.38
2023-01-23T11:10:13.256Z,4.20
2023-01-23T11:12:51.797Z,3.53
2023-01-23T11:15:26.460Z,3.63
2023-01-23T11:17:58.513Z,3.72
2023-01-23T11:20:33.315Z,3.35
2023-01-23T11:23:01.203Z,4.35
2023-01-23T11:25:37.963Z,4.00
2023-01-23T11:28:33.830Z,3.92
2023-01-23T11:31:30.425Z,3.95
2023-01-23T11:33:58.622Z,4.18
2023-01-23T11:36:40.467Z,4.10
2023-01-23T11:39:49.593Z,3.63
2023-01-23T11:42:18.553Z,3.13
2023-01-23T11:44:46.908Z,3.17
2023-01-23T11:47:26.792Z,3.72
2023-01-23T11:50:19.691Z,3.03
2023-01-23T11:52:57.857Z,3.67
2023-01-23T11:55:50.581Z,3.72
2023-01-23T11:58:32.099Z,3.55
2023-01-23T12:01:25.648Z,3.83
2023-01-23T12:04:30.009Z,3.50
2023-01-23T12:07:12.189Z,2.83
2023-01-23T12:09:56.483Z,3.78
2023-01-23T12:12:48.069Z,3.72
2023-01-23T12:15:36.543Z,3.38
2023-01-23T12:18:25.451Z,3.90
2023-01-23T12:20:56.550Z,3.60
2023-01-23T12:23:38.662Z,3.63
2023-01-23T12:26:15.180Z,3.85
2023-01-23T12:29:22.181Z,3.42
2023-01-23T12:32:05.738Z,3.50
2023-01-23T12:34:45.665Z,3.55
2023-01-23T12:37:39.731Z,3.15
2023-01-23T12:40:14.573Z,4.05
2023-01-23T12:42:49.888Z,2.95
2023-01-23T12:45:24.434Z,3.30
2023-01-23T12:48:04.883Z,3.50
2023-01-23T12:50:37.541Z,3.72
2023-01-23T12:53:14.706Z,3.70
2023-01-23T12:55:55.582Z,3.70
2023-01-23T12:58:25.833Z,3.20
2023-01-23T13:01:07.799Z,3.30
2023-01-23T13:03:52.846Z,3.92
2023-01-23T13:06:28.341Z,3.83
2023-01-23T13:09:16.714Z,3.53
2023-01-23T13:12:22.601Z,3.10
2023-01-23T13:15:10.549Z,2.90
2023-01-23T13:17:58.166Z,3.50
2023-01-23T13:20:52.607Z,3.28
2023-01-23T13:23:22.634Z,4.18
2023-01-23T13:25:50.443Z,3.03
2023-01-23T13:28:44.185Z,3.38
2023-01-23T13:31:40.973Z,3.03
2023-01-23T13:34:17.040Z,2.88
2023-01-23T13:39:17.825Z,3.53
2023-01-23T13:41:46.396Z,3.67
2023-01-23T13:44:35.904Z,3.47
2023-01-23T14:24:46.208Z,3.50
2023-01-23T14:27:22.199Z,3.65
2023-01-23T14:30:15.238Z,3.38
2023-01-23T14:32:42.887Z,3.50
2023-01-23T14:35:19.044Z,3.22
2023-01-23T14:37:47.083Z,2.88
2023-01-23T14:40:27.205Z,3.17
2023-01-23T14:43:05.370Z,3.05
2023-01-23T14:45:33.551Z,4.07
2023-01-23T14:48:06.494Z,3.45
2023-01-23T14:50:34.123Z,2.97
2023-01-23T14:53:07.172Z,2.72
2023-01-23T14:55:40.736Z,3.08
2023-01-23T14:58:11.218Z,2.78
2023-01-23T15:00:39.991Z,3.25
2023-01-23T15:03:08.452Z,2.92
2023-01-23T15:05:38.546Z,3.13
2023-01-23T15:08:15.752Z,3.22
2023-01-23T15:10:42.643Z,2.65
2023-01-23T15:13:20.216Z,3.40
2023-01-23T15:15:58.088Z,3.08
2023-01-23T15:18:30.580Z,3.10
2023-01-23T15:20:59.680Z,2.90
2023-01-23T15:23:31.057Z,3.15
2023-01-23T15:26:23.847Z,3.17
2023-01-23T15:28:58.053Z,3.50
2023-01-23T15:31:29.607Z,2.85
2023-01-23T15:34:16.440Z,3.63
2023-01-23T15:36:46.365Z,3.22
2023-01-23T15:39:33.166Z,3.33
2023-01-23T15:42:02.993Z,3.55
2023-01-23T15:44:31.778Z,4.18
2023-01-23T15:47:03.925Z,2.92
2023-01-23T15:49:37.121Z,3.83
2023-01-23T15:52:15.957Z,3.47
2023-01-23T15:54:42.823Z,3.15
2023-01-23T15:57:12.686Z,3.45
2023-01-23T15:59:39.744Z,3.40
2023-01-23T16:02:28.503Z,4.20
2023-01-23T16:04:56.264Z,3.63
2023-01-23T16:07:26.954Z,3.70
2023-01-23T16:09:56.988Z,3.22
2023-01-23T16:12:28.379Z,4.05
2023-01-23T16:14:57.270Z,3.47
2023-01-23T16:17:24.660Z,4.10
2023-01-23T16:19:51.532Z,3.45
2023-01-23T16:22:25.463Z,3.50
2023-01-23T16:24:53.254Z,4.13
2023-01-23T16:27:22.952Z,4.00
2023-01-23T16:29:50.196Z,3.47
2023-01-23T16:32:17.326Z,3.80
2023-01-23T16:34:44.492Z,4.03
2023-01-23T16:37:16.746Z,4.22
2023-01-23T16:39:45.750Z,3.85
2023-01-23T16:42:20.036Z,3.75
2023-01-23T16:44:46.909Z,4.90
2023-01-23T16:47:13.727Z,3.95
2023-01-23T16:49:51.370Z,3.92
2023-01-23T16:52:18.633Z,3.78
2023-01-23T16:54:45.455Z,4.35
2023-01-23T16:57:19.224Z,3.40
2023-01-23T16:59:47.466Z,4.18
2023-01-23T17:02:17.561Z,3.78
2023-01-23T17:04:44.413Z,4.10
2023-01-23T17:07:17.178Z,4.13
2023-01-23T17:09:44.855Z,4.10
2023-01-23T17:12:21.996Z,4.05
2023-01-23T17:14:50.011Z,3.42
2023-01-23T17:17:25.369Z,4.40
2023-01-23T17:19:52.538Z,4.07
2023-01-23T17:22:33.017Z,4.15
2023-01-23T17:24:59.975Z,5.05
2023-01-23T17:27:26.958Z,4.28
2023-01-23T17:29:53.772Z,4.28
2023-01-23T17:32:32.800Z,4.47
2023-01-23T17:35:02.980Z,4.43
2023-01-23T17:37:30.940Z,4.00
2023-01-23T17:39:57.729Z,4.60
2023-01-23T17:42:24.609Z,4.18
2023-01-23T17:44:51.456Z,4.90
2023-01-23T17:47:18.709Z,4.65
2023-01-23T17:49:54.637Z,5.05
2023-01-23T17:52:21.866Z,4.55
2023-01-23T17:54:49.664Z,4.38
2023-01-23T17:57:16.739Z,5.70
2023-01-23T17:59:43.797Z,4.53
2023-01-23T18:02:23.327Z,5.32
2023-01-23T18:04:50.102Z,5.95
2023-01-23T18:07:17.347Z,4.63
2023-01-23T18:09:44.190Z,4.85
2023-01-23T18:12:18.267Z,5.28
2023-01-23T18:14:55.720Z,5.20
2023-01-23T18:17:39.049Z,4.45
2023-01-23T18:20:20.217Z,4.22
2023-01-23T18:22:47.886Z,4.40
2023-01-23T18:25:17.304Z,4.45
2023-01-23T18:27:46.937Z,4.57
2023-01-23T18:30:50.932Z,5.25
2023-01-23T18:33:45.902Z,5.55
2023-01-23T18:36:31.366Z,5.35
2023-01-23T18:39:07.519Z,5.05
2023-01-23T18:44:16.140Z,4.88
2023-01-23T18:46:43.228Z,5.72
2023-01-23T18:49:19.011Z,4.95
2023-01-23T18:52:25.133Z,5.43
2023-01-23T18:55:17.649Z,5.20
2023-01-23T18:58:13.317Z,5.45
2023-01-23T19:00:49.308Z,5.13
2023-01-23T19:05:45.548Z,6.00
2023-01-23T19:08:32.663Z,5.00
2023-01-23T19:11:05.617Z,5.95
2023-01-23T19:13:43.851Z,6.30
2023-01-23T19:16:31.454Z,5.88
2023-01-23T19:19:16.658Z,6.18
2023-01-23T19:21:46.685Z,5.85
2023-01-23T19:24:18.110Z,5.60
2023-01-23T19:26:46.089Z,6.07
2023-01-23T19:29:21.910Z,6.20
2023-01-23T19:32:06.570Z,5.57
2023-01-23T19:34:34.296Z,5.53
2023-01-23T19:37:01.320Z,5.97
2023-01-23T19:39:28.109Z,5.78
2023-01-23T19:41:55.085Z,6.60
2023-01-23T19:44:25.087Z,6.22
2023-01-23T19:46:52.652Z,6.00
2023-01-23T19:49:20.328Z,6.55
2023-01-23T19:51:47.293Z,6.05
2023-01-23T19:54:15.219Z,6.18
2023-01-23T19:56:43.065Z,5.55
2023-01-23T19:59:10.518Z,6.05
2023-01-23T20:01:43.457Z,6.28
2023-01-23T20:04:16.481Z,6.65
2023-01-23T20:06:45.697Z,6.07
2023-01-23T20:09:14.615Z,5.65
2023-01-23T20:11:45.558Z,6.47
2023-01-23T20:14:13.399Z,6.85
2023-01-23T20:16:43.371Z,6.10
2023-01-23T20:19:15.353Z,5.88
2023-01-23T20:21:42.354Z,6.05
2023-01-23T20:24:09.548Z,5.93
2023-01-23T20:26:36.981Z,6.50
2023-01-23T20:29:05.019Z,6.15
2023-01-23T20:31:32.350Z,6.47
2023-01-23T20:33:59.411Z,6.85
2023-01-23T20:36:26.268Z,6.18
2023-01-23T20:38:53.183Z,7.05
2023-01-23T20:41:20.982Z,6.55
2023-01-23T20:43:48.436Z,6.22
2023-01-23T20:46:16.825Z,6.22
2023-01-23T20:48:44.918Z,5.93
2023-01-23T20:51:13.953Z,6.03
2023-01-23T20:53:41.367Z,6.10
2023-01-23T20:56:19.770Z,6.25
2023-01-23T20:59:07.816Z,6.22
2023-01-23T21:02:00.136Z,5.63
2023-01-23T21:04:30.086Z,6.13
2023-01-23T21:06:57.586Z,4.90
2023-01-23T21:09:24.749Z,5.55
2023-01-23T21:11:52.884Z,6.20
2023-01-23T21:14:20.719Z,5.60
2023-01-23T21:16:48.656Z,6.43
2023-01-23T21:19:16.226Z,5.90
2023-01-23T21:21:43.104Z,5.68
2023-01-23T21:24:10.376Z,6.07
2023-01-23T21:26:38.014Z,5.85
2023-01-23T21:29:06.192Z,5.63
2023-01-23T21:31:35.628Z,5.85
2023-01-23T21:34:04.796Z,5.47
2023-01-23T21:36:31.884Z,5.25
2023-01-23T21:38:59.062Z,5.22
2023-01-23T21:41:25.888Z,5.90
2023-01-23T21:43:52.648Z,5.40
2023-01-23T21:46:19.534Z,5.93
2023-01-23T21:48:46.348Z,5.57
2023-01-23T21:51:14.468Z,6.05
2023-01-23T21:53:43.623Z,5.68
2023-01-23T21:56:12.437Z,6.03
2023-01-23T21:58:39.444Z,5.13
2023-01-23T22:01:29.782Z,6.03
2023-01-23T22:03:56.942Z,5.80
2023-01-23T22:06:23.824Z,5.88
2023-01-23T22:08:50.623Z,5.47
2023-01-23T22:11:17.437Z,5.57
2023-01-23T22:13:44.442Z,5.47
2023-01-23T22:16:12.324Z,6.28
2023-01-23T22:18:39.241Z,6.95
2023-01-23T22:21:07.217Z,5.95
2023-01-23T22:23:34.365Z,5.70
2023-01-23T22:26:05.694Z,5.45
2023-01-23T22:28:34.096Z,6.35
2023-01-23T22:31:10.961Z,6.15
2023-01-23T22:33:40.947Z,5.63
2023-01-23T22:36:09.681Z,6.53
2023-01-23T22:38:36.525Z,6.45
2023-01-23T22:41:05.541Z,6.65
2023-01-23T22:43:33.663Z,5.75
2023-01-23T22:46:07.924Z,5.32
2023-01-23T22:48:35.763Z,5.35
2023-01-23T22:51:06.027Z,5.55
2023-01-23T22:53:33.101Z,5.55
2023-01-23T22:56:04.956Z,5.40
2023-01-23T22:58:32.384Z,4.65
2023-01-23T23:00:59.644Z,6.15
2023-01-23T23:03:27.575Z,5.57
2023-01-23T23:06:02.704Z,6.15
2023-01-23T23:08:30.217Z,4.68
2023-01-23T23:11:01.604Z,6.05
2023-01-23T23:13:30.439Z,5.35
2023-01-23T23:15:57.686Z,6.53
2023-01-23T23:18:24.489Z,6.32
2023-01-23T23:20:51.342Z,4.90
2023-01-23T23:23:21.285Z,5.72
2023-01-23T23:25:53.664Z,5.65
2023-01-23T23:28:21.956Z,5.40
2023-01-23T23:30:48.761Z,5.32
2023-01-23T23:33:15.767Z,5.80
2023-01-23T23:35:43.519Z,5.43
2023-01-23T23:38:11.602Z,5.43
2023-01-23T23:40:39.121Z,5.25
2023-01-23T23:43:06.257Z,5.88
2023-01-23T23:45:33.111Z,5.60
2023-01-23T23:48:00.030Z,5.60
2023-01-23T23:50:26.840Z,5.90
2023-01-23T23:52:53.607Z,5.07
2023-01-23T23:55:20.679Z,5.15
2023-01-23T23:57:47.607Z,5.90
